Terminal Aerodrome Forecast
Issued by NWS Twin Cities, MN

Home | Current Version | Previous Version | Text Only | Print | Product List | Glossary On
Versions: 1 2 3 4 5 6 7 8 9 10 11 12 13 14 15 16 17 18
000
FTUS43 KMPX 181700
TAFSTC
TAF
KSTC 181729Z 1818/1918 14011G19KT P6SM BKN100
     FM182100 12012G19KT P6SM SCT050 BKN100
     FM191100 15017G25KT 6SM -SHRA BR SCT025 OVC035
     FM191400 16017G25KT 5SM -SHRA BR SCT015 OVC025
     FM191700 19015G21KT P6SM SCT020 OVC040=

USA.gov is the U.S. government's official web portal to all federal, state and local government web resources and services.